Terminal Aerodrome Forecast
Issued by NWS Tiyan, Guam

Home | Current Version | Previous Version | Text Only | Print | Product List | Glossary On
Versions: 1 2 3 4 5 6 7 8 9 10 11 12 13 14 15 16 17
000
FTPQ31 PGUM 311000 AAE
TAFPQ
TAF AMD
PGUM 311029Z 3110/0112 10007KT P6SM VCSH SCT015 BKN040 BKN120
     FM311600 VRB06KT P6SM VCSH SCT015 SCT040 BKN120=

USA.gov is the U.S. government's official web portal to all federal, state and local government web resources and services.